sensor_id;sensor_type;location;lat;lon;timestamp;P1;durP1;ratioP1;P2;durP2;ratioP2
34481;SDS011;20720;48.886;9.388;2023-02-15T00:01:36;30.88;;;13.80;;
34481;SDS011;20720;48.886;9.388;2023-02-15T00:04:02;28.77;;;13.75;;
34481;SDS011;20720;48.886;9.388;2023-02-15T00:06:28;26.05;;;13.77;;
34481;SDS011;20720;48.886;9.388;2023-02-15T00:08:54;27.85;;;13.77;;
34481;SDS011;20720;48.886;9.388;2023-02-15T00:11:19;25.88;;;13.00;;
34481;SDS011;20720;48.886;9.388;2023-02-15T00:14:08;25.60;;;12.50;;
34481;SDS011;20720;48.886;9.388;2023-02-15T00:16:33;25.38;;;12.20;;
34481;SDS011;20720;48.886;9.388;2023-02-15T00:18:59;25.80;;;13.52;;
34481;SDS011;20720;48.886;9.388;2023-02-15T00:21:27;33.25;;;14.50;;
34481;SDS011;20720;48.886;9.388;2023-02-15T00:23:53;28.05;;;14.75;;
34481;SDS011;20720;48.886;9.388;2023-02-15T00:26:19;29.42;;;14.25;;
34481;SDS011;20720;48.886;9.388;2023-02-15T00:28:44;26.00;;;12.50;;
34481;SDS011;20720;48.886;9.388;2023-02-15T00:31:10;24.35;;;12.05;;
34481;SDS011;20720;48.886;9.388;2023-02-15T00:33:37;23.95;;;12.82;;
34481;SDS011;20720;48.886;9.388;2023-02-15T00:36:03;27.67;;;12.18;;
34481;SDS011;20720;48.886;9.388;2023-02-15T00:38:30;25.77;;;11.45;;
34481;SDS011;20720;48.886;9.388;2023-02-15T00:40:57;28.10;;;12.48;;
34481;SDS011;20720;48.886;9.388;2023-02-15T00:43:23;25.35;;;12.90;;
34481;SDS011;20720;48.886;9.388;2023-02-15T00:45:49;26.35;;;12.65;;
34481;SDS011;20720;48.886;9.388;2023-02-15T00:48:15;22.02;;;11.23;;
34481;SDS011;20720;48.886;9.388;2023-02-15T00:50:40;24.92;;;12.35;;
34481;SDS011;20720;48.886;9.388;2023-02-15T00:53:05;27.83;;;13.65;;
34481;SDS011;20720;48.886;9.388;2023-02-15T00:55:31;25.20;;;11.90;;
34481;SDS011;20720;48.886;9.388;2023-02-15T00:57:56;23.45;;;11.98;;
34481;SDS011;20720;48.886;9.388;2023-02-15T01:00:21;26.55;;;13.40;;
34481;SDS011;20720;48.886;9.388;2023-02-15T01:02:46;21.05;;;10.88;;
34481;SDS011;20720;48.886;9.388;2023-02-15T01:05:12;23.42;;;11.32;;
34481;SDS011;20720;48.886;9.388;2023-02-15T01:07:37;22.67;;;11.35;;
34481;SDS011;20720;48.886;9.388;2023-02-15T01:10:03;27.67;;;11.80;;
34481;SDS011;20720;48.886;9.388;2023-02-15T01:12:29;24.15;;;11.48;;
34481;SDS011;20720;48.886;9.388;2023-02-15T01:14:54;23.10;;;12.20;;
34481;SDS011;20720;48.886;9.388;2023-02-15T01:17:19;27.20;;;12.48;;
34481;SDS011;20720;48.886;9.388;2023-02-15T01:19:45;23.08;;;11.82;;
34481;SDS011;20720;48.886;9.388;2023-02-15T01:22:10;22.02;;;10.38;;
34481;SDS011;20720;48.886;9.388;2023-02-15T01:24:35;24.35;;;11.73;;
34481;SDS011;20720;48.886;9.388;2023-02-15T01:27:00;23.48;;;11.90;;
34481;SDS011;20720;48.886;9.388;2023-02-15T01:29:26;21.88;;;11.20;;
34481;SDS011;20720;48.886;9.388;2023-02-15T01:31:51;22.83;;;11.52;;
34481;SDS011;20720;48.886;9.388;2023-02-15T01:34:16;24.25;;;12.38;;
34481;SDS011;20720;48.886;9.388;2023-02-15T01:36:41;23.90;;;11.15;;
34481;SDS011;20720;48.886;9.388;2023-02-15T01:39:07;21.45;;;10.82;;
34481;SDS011;20720;48.886;9.388;2023-02-15T01:41:32;22.90;;;12.02;;
34481;SDS011;20720;48.886;9.388;2023-02-15T01:43:59;24.83;;;11.02;;
34481;SDS011;20720;48.886;9.388;2023-02-15T01:46:27;21.30;;;10.65;;
34481;SDS011;20720;48.886;9.388;2023-02-15T01:49:00;25.13;;;11.57;;
34481;SDS011;20720;48.886;9.388;2023-02-15T01:51:29;23.88;;;11.68;;
34481;SDS011;20720;48.886;9.388;2023-02-15T01:54:01;22.05;;;10.73;;
34481;SDS011;20720;48.886;9.388;2023-02-15T01:56:35;21.63;;;11.23;;
34481;SDS011;20720;48.886;9.388;2023-02-15T01:59:04;22.45;;;11.23;;
34481;SDS011;20720;48.886;9.388;2023-02-15T02:01:33;19.40;;;9.23;;
34481;SDS011;20720;48.886;9.388;2023-02-15T02:06:47;19.45;;;10.27;;
34481;SDS011;20720;48.886;9.388;2023-02-15T02:09:14;24.92;;;11.80;;
34481;SDS011;20720;48.886;9.388;2023-02-15T02:11:40;23.63;;;11.52;;
34481;SDS011;20720;48.886;9.388;2023-02-15T02:14:06;21.50;;;11.30;;
34481;SDS011;20720;48.886;9.388;2023-02-15T02:28:17;18.00;;;8.43;;
34481;SDS011;20720;48.886;9.388;2023-02-15T02:30:58;22.23;;;10.75;;
34481;SDS011;20720;48.886;9.388;2023-02-15T02:33:53;20.15;;;9.95;;
34481;SDS011;20720;48.886;9.388;2023-02-15T02:42:01;19.63;;;10.45;;
34481;SDS011;20720;48.886;9.388;2023-02-15T02:44:45;22.00;;;11.25;;
34481;SDS011;20720;48.886;9.388;2023-02-15T02:47:50;22.50;;;10.77;;
34481;SDS011;20720;48.886;9.388;2023-02-15T02:50:17;24.52;;;11.35;;
34481;SDS011;20720;48.886;9.388;2023-02-15T02:52:48;23.67;;;10.02;;
34481;SDS011;20720;48.886;9.388;2023-02-15T02:55:19;20.25;;;10.43;;
34481;SDS011;20720;48.886;9.388;2023-02-15T02:58:05;20.65;;;10.48;;
34481;SDS011;20720;48.886;9.388;2023-02-15T03:03:39;19.27;;;10.07;;
34481;SDS011;20720;48.886;9.388;2023-02-15T03:06:12;21.30;;;9.80;;
34481;SDS011;20720;48.886;9.388;2023-02-15T03:08:54;19.33;;;9.90;;
34481;SDS011;20720;48.886;9.388;2023-02-15T03:11:25;18.27;;;9.70;;
34481;SDS011;20720;48.886;9.388;2023-02-15T03:13:50;19.55;;;10.32;;
34481;SDS011;20720;48.886;9.388;2023-02-15T03:16:16;20.10;;;9.90;;
34481;SDS011;20720;48.886;9.388;2023-02-15T03:18:51;19.52;;;9.40;;
34481;SDS011;20720;48.886;9.388;2023-02-15T03:24:23;20.27;;;10.20;;
34481;SDS011;20720;48.886;9.388;2023-02-15T03:26:59;19.42;;;9.05;;
34481;SDS011;20720;48.886;9.388;2023-02-15T03:29:30;20.15;;;10.00;;
34481;SDS011;20720;48.886;9.388;2023-02-15T03:31:58;25.13;;;11.07;;
34481;SDS011;20720;48.886;9.388;2023-02-15T03:34:25;19.27;;;10.07;;
34481;SDS011;20720;48.886;9.388;2023-02-15T03:40:04;25.38;;;10.93;;
34481;SDS011;20720;48.886;9.388;2023-02-15T03:43:12;24.67;;;11.63;;
34481;SDS011;20720;48.886;9.388;2023-02-15T03:45:43;26.58;;;11.13;;
34481;SDS011;20720;48.886;9.388;2023-02-15T03:48:26;21.55;;;10.80;;
34481;SDS011;20720;48.886;9.388;2023-02-15T03:50:56;21.35;;;9.85;;
34481;SDS011;20720;48.886;9.388;2023-02-15T03:53:44;23.42;;;9.40;;
34481;SDS011;20720;48.886;9.388;2023-02-15T03:56:13;20.27;;;10.27;;
34481;SDS011;20720;48.886;9.388;2023-02-15T03:58:38;20.83;;;10.85;;
34481;SDS011;20720;48.886;9.388;2023-02-15T04:01:26;21.88;;;10.90;;
34481;SDS011;20720;48.886;9.388;2023-02-15T04:04:10;25.33;;;11.80;;
34481;SDS011;20720;48.886;9.388;2023-02-15T04:06:40;23.08;;;11.25;;
34481;SDS011;20720;48.886;9.388;2023-02-15T04:09:05;21.85;;;10.80;;
34481;SDS011;20720;48.886;9.388;2023-02-15T04:11:49;21.70;;;10.52;;
34481;SDS011;20720;48.886;9.388;2023-02-15T04:14:14;19.27;;;9.73;;
34481;SDS011;20720;48.886;9.388;2023-02-15T04:16:58;20.40;;;10.32;;
34481;SDS011;20720;48.886;9.388;2023-02-15T04:19:23;24.05;;;10.38;;
34481;SDS011;20720;48.886;9.388;2023-02-15T04:22:07;20.58;;;10.20;;
34481;SDS011;20720;48.886;9.388;2023-02-15T04:24:51;18.27;;;8.85;;
34481;SDS011;20720;48.886;9.388;2023-02-15T04:27:36;20.25;;;9.80;;
34481;SDS011;20720;48.886;9.388;2023-02-15T04:30:02;21.50;;;10.68;;
34481;SDS011;20720;48.886;9.388;2023-02-15T04:32:27;21.52;;;11.98;;
34481;SDS011;20720;48.886;9.388;2023-02-15T04:34:53;22.58;;;11.52;;
34481;SDS011;20720;48.886;9.388;2023-02-15T04:37:18;22.23;;;11.93;;
34481;SDS011;20720;48.886;9.388;2023-02-15T04:39:43;22.15;;;10.48;;
34481;SDS011;20720;48.886;9.388;2023-02-15T04:42:09;16.90;;;10.38;;
34481;SDS011;20720;48.886;9.388;2023-02-15T04:44:34;24.05;;;10.95;;
34481;SDS011;20720;48.886;9.388;2023-02-15T04:46:59;19.55;;;10.55;;
34481;SDS011;20720;48.886;9.388;2023-02-15T04:49:24;22.23;;;12.02;;
34481;SDS011;20720;48.886;9.388;2023-02-15T04:51:50;22.52;;;11.38;;
34481;SDS011;20720;48.886;9.388;2023-02-15T04:54:15;21.77;;;11.55;;
34481;SDS011;20720;48.886;9.388;2023-02-15T04:56:40;20.42;;;10.55;;
34481;SDS011;20720;48.886;9.388;2023-02-15T04:59:08;22.05;;;10.50;;
34481;SDS011;20720;48.886;9.388;2023-02-15T05:01:35;22.08;;;10.55;;
34481;SDS011;20720;48.886;9.388;2023-02-15T05:04:00;20.02;;;9.90;;
34481;SDS011;20720;48.886;9.388;2023-02-15T05:06:25;28.73;;;11.48;;
34481;SDS011;20720;48.886;9.388;2023-02-15T05:08:51;21.85;;;11.35;;
34481;SDS011;20720;48.886;9.388;2023-02-15T05:11:16;18.48;;;9.77;;
34481;SDS011;20720;48.886;9.388;2023-02-15T05:13:41;21.35;;;9.77;;
34481;SDS011;20720;48.886;9.388;2023-02-15T05:16:07;18.52;;;8.68;;
34481;SDS011;20720;48.886;9.388;2023-02-15T05:18:32;24.85;;;8.57;;
34481;SDS011;20720;48.886;9.388;2023-02-15T05:20:58;27.52;;;10.10;;
34481;SDS011;20720;48.886;9.388;2023-02-15T05:23:23;18.40;;;9.88;;
34481;SDS011;20720;48.886;9.388;2023-02-15T05:25:50;16.77;;;9.38;;
34481;SDS011;20720;48.886;9.388;2023-02-15T05:28:35;16.25;;;9.57;;
34481;SDS011;20720;48.886;9.388;2023-02-15T05:31:09;16.73;;;9.45;;
34481;SDS011;20720;48.886;9.388;2023-02-15T05:33:36;19.63;;;9.57;;
34481;SDS011;20720;48.886;9.388;2023-02-15T05:36:03;16.67;;;9.15;;
34481;SDS011;20720;48.886;9.388;2023-02-15T05:38:29;16.85;;;8.82;;
34481;SDS011;20720;48.886;9.388;2023-02-15T05:40:55;18.83;;;10.20;;
34481;SDS011;20720;48.886;9.388;2023-02-15T05:43:21;23.27;;;9.75;;
34481;SDS011;20720;48.886;9.388;2023-02-15T05:45:48;18.25;;;10.23;;
34481;SDS011;20720;48.886;9.388;2023-02-15T05:48:14;24.20;;;12.07;;
34481;SDS011;20720;48.886;9.388;2023-02-15T05:50:40;26.88;;;12.88;;
34481;SDS011;20720;48.886;9.388;2023-02-15T05:53:05;21.83;;;11.85;;
34481;SDS011;20720;48.886;9.388;2023-02-15T05:55:31;24.95;;;10.55;;
34481;SDS011;20720;48.886;9.388;2023-02-15T05:57:56;16.73;;;9.40;;
34481;SDS011;20720;48.886;9.388;2023-02-15T06:00:22;25.73;;;9.50;;
34481;SDS011;20720;48.886;9.388;2023-02-15T06:02:47;23.52;;;9.30;;
34481;SDS011;20720;48.886;9.388;2023-02-15T06:05:12;17.88;;;8.70;;
34481;SDS011;20720;48.886;9.388;2023-02-15T06:07:38;22.58;;;9.30;;
34481;SDS011;20720;48.886;9.388;2023-02-15T06:10:03;25.02;;;10.80;;
34481;SDS011;20720;48.886;9.388;2023-02-15T06:12:29;23.05;;;10.80;;
34481;SDS011;20720;48.886;9.388;2023-02-15T06:14:54;22.17;;;9.77;;
34481;SDS011;20720;48.886;9.388;2023-02-15T06:17:20;15.80;;;7.93;;
34481;SDS011;20720;48.886;9.388;2023-02-15T06:19:46;18.55;;;9.32;;
34481;SDS011;20720;48.886;9.388;2023-02-15T06:22:11;16.80;;;9.20;;
34481;SDS011;20720;48.886;9.388;2023-02-15T06:24:38;20.38;;;9.50;;
34481;SDS011;20720;48.886;9.388;2023-02-15T06:27:04;21.75;;;10.73;;
34481;SDS011;20720;48.886;9.388;2023-02-15T06:29:29;22.63;;;9.75;;
34481;SDS011;20720;48.886;9.388;2023-02-15T06:31:54;17.80;;;9.48;;
34481;SDS011;20720;48.886;9.388;2023-02-15T06:34:20;23.85;;;10.18;;
34481;SDS011;20720;48.886;9.388;2023-02-15T06:36:45;27.63;;;10.88;;
34481;SDS011;20720;48.886;9.388;2023-02-15T06:39:10;19.75;;;9.98;;
34481;SDS011;20720;48.886;9.388;2023-02-15T06:41:35;18.90;;;9.80;;
34481;SDS011;20720;48.886;9.388;2023-02-15T06:44:01;21.98;;;11.38;;
34481;SDS011;20720;48.886;9.388;2023-02-15T06:46:26;23.35;;;11.52;;
34481;SDS011;20720;48.886;9.388;2023-02-15T06:48:51;23.13;;;11.90;;
34481;SDS011;20720;48.886;9.388;2023-02-15T06:51:17;22.27;;;11.57;;
34481;SDS011;20720;48.886;9.388;2023-02-15T06:53:42;38.85;;;16.80;;
34481;SDS011;20720;48.886;9.388;2023-02-15T06:56:08;41.38;;;16.83;;
34481;SDS011;20720;48.886;9.388;2023-02-15T06:58:41;39.92;;;16.92;;
34481;SDS011;20720;48.886;9.388;2023-02-15T07:03:33;24.23;;;11.82;;
34481;SDS011;20720;48.886;9.388;2023-02-15T07:05:59;19.45;;;9.88;;
34481;SDS011;20720;48.886;9.388;2023-02-15T07:08:26;16.77;;;9.32;;
34481;SDS011;20720;48.886;9.388;2023-02-15T07:10:52;16.58;;;8.43;;
34481;SDS011;20720;48.886;9.388;2023-02-15T07:13:19;15.10;;;8.02;;
34481;SDS011;20720;48.886;9.388;2023-02-15T07:15:45;14.13;;;7.90;;
34481;SDS011;20720;48.886;9.388;2023-02-15T07:18:11;14.00;;;7.40;;
34481;SDS011;20720;48.886;9.388;2023-02-15T07:20:37;18.38;;;9.07;;
34481;SDS011;20720;48.886;9.388;2023-02-15T07:23:02;17.88;;;9.55;;
34481;SDS011;20720;48.886;9.388;2023-02-15T07:25:28;20.02;;;9.38;;
34481;SDS011;20720;48.886;9.388;2023-02-15T07:27:57;19.40;;;9.85;;
34481;SDS011;20720;48.886;9.388;2023-02-15T07:30:23;17.17;;;8.77;;
34481;SDS011;20720;48.886;9.388;2023-02-15T07:32:49;17.17;;;9.13;;
34481;SDS011;20720;48.886;9.388;2023-02-15T07:35:33;14.70;;;8.40;;
34481;SDS011;20720;48.886;9.388;2023-02-15T07:37:59;15.80;;;8.88;;
34481;SDS011;20720;48.886;9.388;2023-02-15T07:40:25;13.82;;;7.88;;
34481;SDS011;20720;48.886;9.388;2023-02-15T07:42:51;15.73;;;8.10;;
34481;SDS011;20720;48.886;9.388;2023-02-15T07:45:18;13.90;;;7.30;;
34481;SDS011;20720;48.886;9.388;2023-02-15T07:47:43;13.23;;;8.13;;
34481;SDS011;20720;48.886;9.388;2023-02-15T07:50:08;11.23;;;7.22;;
34481;SDS011;20720;48.886;9.388;2023-02-15T07:52:34;13.20;;;8.15;;
34481;SDS011;20720;48.886;9.388;2023-02-15T07:54:59;17.27;;;10.55;;
34481;SDS011;20720;48.886;9.388;2023-02-15T07:57:24;19.98;;;11.52;;
34481;SDS011;20720;48.886;9.388;2023-02-15T07:59:50;18.38;;;10.13;;
34481;SDS011;20720;48.886;9.388;2023-02-15T08:02:15;16.40;;;10.18;;
34481;SDS011;20720;48.886;9.388;2023-02-15T08:04:40;18.92;;;9.77;;
34481;SDS011;20720;48.886;9.388;2023-02-15T08:07:05;14.65;;;8.75;;
34481;SDS011;20720;48.886;9.388;2023-02-15T08:09:31;17.00;;;10.13;;
34481;SDS011;20720;48.886;9.388;2023-02-15T08:11:57;13.65;;;8.20;;
34481;SDS011;20720;48.886;9.388;2023-02-15T08:14:22;15.70;;;9.75;;
34481;SDS011;20720;48.886;9.388;2023-02-15T08:16:48;19.88;;;11.48;;
34481;SDS011;20720;48.886;9.388;2023-02-15T08:19:16;18.35;;;10.80;;
34481;SDS011;20720;48.886;9.388;2023-02-15T08:21:44;17.02;;;10.07;;
34481;SDS011;20720;48.886;9.388;2023-02-15T08:24:12;15.43;;;9.32;;
34481;SDS011;20720;48.886;9.388;2023-02-15T08:26:39;13.55;;;8.93;;
34481;SDS011;20720;48.886;9.388;2023-02-15T08:29:05;12.45;;;7.78;;
34481;SDS011;20720;48.886;9.388;2023-02-15T08:31:31;11.90;;;7.75;;
34481;SDS011;20720;48.886;9.388;2023-02-15T08:33:57;15.23;;;8.52;;
34481;SDS011;20720;48.886;9.388;2023-02-15T08:36:25;15.27;;;9.63;;
34481;SDS011;20720;48.886;9.388;2023-02-15T08:38:52;14.25;;;8.05;;
34481;SDS011;20720;48.886;9.388;2023-02-15T08:41:19;11.70;;;7.97;;
34481;SDS011;20720;48.886;9.388;2023-02-15T08:43:47;12.55;;;7.88;;
34481;SDS011;20720;48.886;9.388;2023-02-15T08:46:14;12.35;;;8.75;;
34481;SDS011;20720;48.886;9.388;2023-02-15T08:48:41;12.55;;;8.15;;
34481;SDS011;20720;48.886;9.388;2023-02-15T08:51:11;13.05;;;9.00;;
34481;SDS011;20720;48.886;9.388;2023-02-15T08:53:52;12.68;;;8.52;;
34481;SDS011;20720;48.886;9.388;2023-02-15T08:56:20;12.48;;;8.48;;
34481;SDS011;20720;48.886;9.388;2023-02-15T08:58:47;12.68;;;8.35;;
34481;SDS011;20720;48.886;9.388;2023-02-15T09:01:17;13.60;;;9.00;;
34481;SDS011;20720;48.886;9.388;2023-02-15T09:03:46;12.68;;;8.35;;
34481;SDS011;20720;48.886;9.388;2023-02-15T09:06:13;15.43;;;9.38;;
34481;SDS011;20720;48.886;9.388;2023-02-15T09:08:39;14.52;;;9.75;;
34481;SDS011;20720;48.886;9.388;2023-02-15T09:11:09;14.82;;;10.02;;
34481;SDS011;20720;48.886;9.388;2023-02-15T09:13:47;13.45;;;9.23;;
34481;SDS011;20720;48.886;9.388;2023-02-15T09:16:14;16.95;;;9.68;;
34481;SDS011;20720;48.886;9.388;2023-02-15T09:18:41;14.65;;;10.07;;
34481;SDS011;20720;48.886;9.388;2023-02-15T09:21:08;14.00;;;9.93;;
34481;SDS011;20720;48.886;9.388;2023-02-15T09:23:38;12.02;;;8.10;;
34481;SDS011;20720;48.886;9.388;2023-02-15T09:26:07;14.57;;;10.52;;
34481;SDS011;20720;48.886;9.388;2023-02-15T09:28:34;16.98;;;9.90;;
34481;SDS011;20720;48.886;9.388;2023-02-15T09:31:07;14.05;;;9.75;;
34481;SDS011;20720;48.886;9.388;2023-02-15T09:33:38;14.70;;;10.15;;
34481;SDS011;20720;48.886;9.388;2023-02-15T09:36:04;15.80;;;10.50;;
34481;SDS011;20720;48.886;9.388;2023-02-15T09:38:30;14.20;;;9.95;;
34481;SDS011;20720;48.886;9.388;2023-02-15T09:41:05;12.65;;;9.57;;
34481;SDS011;20720;48.886;9.388;2023-02-15T09:43:39;14.05;;;10.05;;
34481;SDS011;20720;48.886;9.388;2023-02-15T09:49:11;12.38;;;9.48;;
34481;SDS011;20720;48.886;9.388;2023-02-15T09:55:33;13.65;;;9.35;;
34481;SDS011;20720;48.886;9.388;2023-02-15T09:57:56;12.70;;;10.07;;
34481;SDS011;20720;48.886;9.388;2023-02-15T10:00:30;13.40;;;9.27;;
34481;SDS011;20720;48.886;9.388;2023-02-15T10:05:49;18.42;;;10.80;;
34481;SDS011;20720;48.886;9.388;2023-02-15T10:14:45;15.57;;;10.48;;
34481;SDS011;20720;48.886;9.388;2023-02-15T10:17:26;15.50;;;9.88;;
34481;SDS011;20720;48.886;9.388;2023-02-15T10:22:56;13.82;;;9.80;;
34481;SDS011;20720;48.886;9.388;2023-02-15T10:25:28;15.57;;;10.93;;
34481;SDS011;20720;48.886;9.388;2023-02-15T10:28:08;17.45;;;11.07;;
34481;SDS011;20720;48.886;9.388;2023-02-15T10:30:49;15.63;;;11.13;;
34481;SDS011;20720;48.886;9.388;2023-02-15T10:36:00;14.57;;;9.93;;
34481;SDS011;20720;48.886;9.388;2023-02-15T10:38:35;14.00;;;9.77;;
34481;SDS011;20720;48.886;9.388;2023-02-15T10:47:08;14.80;;;10.32;;
34481;SDS011;20720;48.886;9.388;2023-02-15T10:52:21;14.50;;;10.45;;
34481;SDS011;20720;48.886;9.388;2023-02-15T10:55:09;12.82;;;9.40;;
34481;SDS011;20720;48.886;9.388;2023-02-15T10:57:59;14.80;;;10.45;;
34481;SDS011;20720;48.886;9.388;2023-02-15T11:05:49;14.82;;;10.65;;
34481;SDS011;20720;48.886;9.388;2023-02-15T11:08:31;12.52;;;9.45;;
34481;SDS011;20720;48.886;9.388;2023-02-15T11:11:01;14.88;;;11.13;;
34481;SDS011;20720;48.886;9.388;2023-02-15T11:13:34;15.65;;;9.65;;
34481;SDS011;20720;48.886;9.388;2023-02-15T11:16:05;14.88;;;10.02;;
34481;SDS011;20720;48.886;9.388;2023-02-15T11:18:40;13.40;;;10.13;;
34481;SDS011;20720;48.886;9.388;2023-02-15T11:21:11;12.98;;;9.93;;
34481;SDS011;20720;48.886;9.388;2023-02-15T11:23:44;14.30;;;9.75;;
34481;SDS011;20720;48.886;9.388;2023-02-15T11:26:13;12.85;;;9.70;;
34481;SDS011;20720;48.886;9.388;2023-02-15T11:28:48;13.18;;;9.40;;
34481;SDS011;20720;48.886;9.388;2023-02-15T11:31:19;16.27;;;10.07;;
34481;SDS011;20720;48.886;9.388;2023-02-15T11:33:48;13.23;;;9.45;;
34481;SDS011;20720;48.886;9.388;2023-02-15T11:36:28;13.18;;;9.50;;
34481;SDS011;20720;48.886;9.388;2023-02-15T11:39:00;11.88;;;9.30;;
34481;SDS011;20720;48.886;9.388;2023-02-15T11:41:31;13.13;;;9.77;;
34481;SDS011;20720;48.886;9.388;2023-02-15T11:44:06;15.05;;;9.70;;
34481;SDS011;20720;48.886;9.388;2023-02-15T11:46:54;11.83;;;9.67;;
34481;SDS011;20720;48.886;9.388;2023-02-15T11:49:27;14.68;;;9.65;;
34481;SDS011;20720;48.886;9.388;2023-02-15T11:51:56;10.95;;;8.52;;
34481;SDS011;20720;48.886;9.388;2023-02-15T11:54:26;13.15;;;9.75;;
34481;SDS011;20720;48.886;9.388;2023-02-15T11:56:55;14.77;;;9.68;;
34481;SDS011;20720;48.886;9.388;2023-02-15T11:59:28;11.20;;;8.52;;
34481;SDS011;20720;48.886;9.388;2023-02-15T12:01:57;13.05;;;9.40;;
34481;SDS011;20720;48.886;9.388;2023-02-15T12:06:55;12.57;;;10.10;;
34481;SDS011;20720;48.886;9.388;2023-02-15T12:12:20;11.57;;;9.10;;
34481;SDS011;20720;48.886;9.388;2023-02-15T12:14:49;14.00;;;9.38;;
34481;SDS011;20720;48.886;9.388;2023-02-15T12:17:16;13.00;;;9.60;;
34481;SDS011;20720;48.886;9.388;2023-02-15T12:19:42;15.30;;;9.88;;
34481;SDS011;20720;48.886;9.388;2023-02-15T12:22:31;12.23;;;9.20;;
34481;SDS011;20720;48.886;9.388;2023-02-15T12:25:00;14.05;;;9.95;;
34481;SDS011;20720;48.886;9.388;2023-02-15T12:27:29;10.98;;;8.93;;
34481;SDS011;20720;48.886;9.388;2023-02-15T12:30:07;12.70;;;9.70;;
34481;SDS011;20720;48.886;9.388;2023-02-15T12:35:47;12.13;;;9.32;;
34481;SDS011;20720;48.886;9.388;2023-02-15T12:38:28;13.52;;;9.60;;
34481;SDS011;20720;48.886;9.388;2023-02-15T12:41:04;13.32;;;9.25;;
34481;SDS011;20720;48.886;9.388;2023-02-15T12:43:46;12.50;;;9.35;;
34481;SDS011;20720;48.886;9.388;2023-02-15T12:46:24;11.68;;;8.70;;
34481;SDS011;20720;48.886;9.388;2023-02-15T12:51:44;11.13;;;8.50;;
34481;SDS011;20720;48.886;9.388;2023-02-15T12:54:32;12.95;;;9.35;;
34481;SDS011;20720;48.886;9.388;2023-02-15T12:57:12;12.50;;;9.27;;
34481;SDS011;20720;48.886;9.388;2023-02-15T12:59:58;11.80;;;9.10;;
34481;SDS011;20720;48.886;9.388;2023-02-15T13:02:27;12.52;;;9.30;;
34481;SDS011;20720;48.886;9.388;2023-02-15T13:04:56;12.73;;;8.60;;
34481;SDS011;20720;48.886;9.388;2023-02-15T13:07:30;11.70;;;8.82;;
34481;SDS011;20720;48.886;9.388;2023-02-15T13:09:56;13.82;;;8.80;;
34481;SDS011;20720;48.886;9.388;2023-02-15T13:12:25;10.93;;;8.93;;
34481;SDS011;20720;48.886;9.388;2023-02-15T13:14:55;11.25;;;9.35;;
34481;SDS011;20720;48.886;9.388;2023-02-15T13:17:25;12.07;;;8.20;;
34481;SDS011;20720;48.886;9.388;2023-02-15T13:19:54;10.00;;;8.13;;
34481;SDS011;20720;48.886;9.388;2023-02-15T13:22:28;10.43;;;8.82;;
34481;SDS011;20720;48.886;9.388;2023-02-15T13:25:01;10.25;;;7.97;;
34481;SDS011;20720;48.886;9.388;2023-02-15T13:27:38;13.57;;;9.00;;
34481;SDS011;20720;48.886;9.388;2023-02-15T13:30:10;12.50;;;8.57;;
34481;SDS011;20720;48.886;9.388;2023-02-15T13:32:44;12.20;;;8.40;;
34481;SDS011;20720;48.886;9.388;2023-02-15T13:35:13;15.35;;;8.65;;
34481;SDS011;20720;48.886;9.388;2023-02-15T13:37:54;16.15;;;8.27;;
34481;SDS011;20720;48.886;9.388;2023-02-15T13:40:41;12.15;;;7.70;;
34481;SDS011;20720;48.886;9.388;2023-02-15T13:51:03;9.80;;;8.25;;
34481;SDS011;20720;48.886;9.388;2023-02-15T13:59:54;10.05;;;7.97;;
34481;SDS011;20720;48.886;9.388;2023-02-15T14:04:44;10.63;;;8.13;;
34481;SDS011;20720;48.886;9.388;2023-02-15T14:10:43;10.75;;;7.80;;
34481;SDS011;20720;48.886;9.388;2023-02-15T14:13:35;12.48;;;8.35;;
34481;SDS011;20720;48.886;9.388;2023-02-15T14:21:42;12.45;;;8.70;;
34481;SDS011;20720;48.886;9.388;2023-02-15T14:24:49;10.63;;;8.20;;
34481;SDS011;20720;48.886;9.388;2023-02-15T14:35:01;10.73;;;7.85;;
34481;SDS011;20720;48.886;9.388;2023-02-15T14:37:46;10.85;;;7.55;;
34481;SDS011;20720;48.886;9.388;2023-02-15T14:40:19;9.80;;;7.45;;
34481;SDS011;20720;48.886;9.388;2023-02-15T14:45:40;10.20;;;7.97;;
34481;SDS011;20720;48.886;9.388;2023-02-15T14:50:54;12.02;;;7.60;;
34481;SDS011;20720;48.886;9.388;2023-02-15T14:56:36;11.05;;;7.63;;
34481;SDS011;20720;48.886;9.388;2023-02-15T15:01:16;10.60;;;7.00;;
34481;SDS011;20720;48.886;9.388;2023-02-15T15:04:06;10.65;;;7.68;;
34481;SDS011;20720;48.886;9.388;2023-02-15T15:06:35;12.60;;;7.10;;
34481;SDS011;20720;48.886;9.388;2023-02-15T15:09:11;10.40;;;7.50;;
34481;SDS011;20720;48.886;9.388;2023-02-15T15:11:41;10.98;;;7.20;;
34481;SDS011;20720;48.886;9.388;2023-02-15T15:16:58;11.07;;;7.03;;
34481;SDS011;20720;48.886;9.388;2023-02-15T15:22:16;14.23;;;7.40;;
34481;SDS011;20720;48.886;9.388;2023-02-15T15:24:47;8.88;;;7.47;;
34481;SDS011;20720;48.886;9.388;2023-02-15T15:32:46;11.93;;;9.23;;
34481;SDS011;20720;48.886;9.388;2023-02-15T15:35:22;14.90;;;9.68;;
34481;SDS011;20720;48.886;9.388;2023-02-15T15:49:34;16.40;;;11.25;;
34481;SDS011;20720;48.886;9.388;2023-02-15T15:52:02;15.20;;;12.18;;
34481;SDS011;20720;48.886;9.388;2023-02-15T15:54:37;18.05;;;12.75;;
34481;SDS011;20720;48.886;9.388;2023-02-15T15:57:04;18.85;;;13.23;;
34481;SDS011;20720;48.886;9.388;2023-02-15T15:59:36;17.88;;;12.73;;
34481;SDS011;20720;48.886;9.388;2023-02-15T16:02:15;23.95;;;13.57;;
34481;SDS011;20720;48.886;9.388;2023-02-15T16:12:20;19.17;;;13.32;;
34481;SDS011;20720;48.886;9.388;2023-02-15T16:14:46;22.52;;;13.88;;
34481;SDS011;20720;48.886;9.388;2023-02-15T16:17:19;21.33;;;14.48;;
34481;SDS011;20720;48.886;9.388;2023-02-15T16:19:47;22.45;;;13.43;;
34481;SDS011;20720;48.886;9.388;2023-02-15T16:22:15;19.67;;;12.80;;
34481;SDS011;20720;48.886;9.388;2023-02-15T16:32:44;22.33;;;14.10;;
34481;SDS011;20720;48.886;9.388;2023-02-15T16:35:12;25.00;;;15.25;;
34481;SDS011;20720;48.886;9.388;2023-02-15T16:37:39;26.50;;;15.55;;
34481;SDS011;20720;48.886;9.388;2023-02-15T16:40:04;23.85;;;16.38;;
34481;SDS011;20720;48.886;9.388;2023-02-15T16:42:30;30.33;;;19.08;;
34481;SDS011;20720;48.886;9.388;2023-02-15T16:44:58;31.17;;;16.80;;
34481;SDS011;20720;48.886;9.388;2023-02-15T16:47:31;26.67;;;15.75;;
34481;SDS011;20720;48.886;9.388;2023-02-15T16:50:02;27.02;;;16.15;;
34481;SDS011;20720;48.886;9.388;2023-02-15T16:52:29;24.40;;;15.32;;
34481;SDS011;20720;48.886;9.388;2023-02-15T16:54:58;22.27;;;14.05;;
34481;SDS011;20720;48.886;9.388;2023-02-15T16:57:27;28.70;;;16.35;;
34481;SDS011;20720;48.886;9.388;2023-02-15T16:59:58;25.30;;;16.40;;
34481;SDS011;20720;48.886;9.388;2023-02-15T17:02:30;34.40;;;21.60;;
34481;SDS011;20720;48.886;9.388;2023-02-15T17:07:38;25.50;;;15.82;;
34481;SDS011;20720;48.886;9.388;2023-02-15T17:10:16;24.85;;;15.52;;
34481;SDS011;20720;48.886;9.388;2023-02-15T17:12:53;29.00;;;16.40;;
34481;SDS011;20720;48.886;9.388;2023-02-15T17:17:51;31.00;;;15.68;;
34481;SDS011;20720;48.886;9.388;2023-02-15T17:20:17;26.70;;;14.90;;
34481;SDS011;20720;48.886;9.388;2023-02-15T17:22:45;25.73;;;15.15;;
34481;SDS011;20720;48.886;9.388;2023-02-15T17:25:18;25.67;;;14.88;;
34481;SDS011;20720;48.886;9.388;2023-02-15T17:27:50;32.80;;;16.98;;
34481;SDS011;20720;48.886;9.388;2023-02-15T17:30:21;28.35;;;17.13;;
34481;SDS011;20720;48.886;9.388;2023-02-15T17:32:59;27.52;;;16.17;;